sensor_id;sensor_type;location;lat;lon;timestamp;P1;durP1;ratioP1;P2;durP2;ratioP2
57551;SDS011;43379;48.160;14.036;2023-11-21T00:02:02;9.83;;;7.40;;
57551;SDS011;43379;48.160;14.036;2023-11-21T00:04:29;7.03;;;6.10;;
57551;SDS011;43379;48.160;14.036;2023-11-21T00:06:55;12.23;;;7.13;;
57551;SDS011;43379;48.160;14.036;2023-11-21T00:09:20;7.47;;;6.07;;
57551;SDS011;43379;48.160;14.036;2023-11-21T00:11:46;7.27;;;6.57;;
57551;SDS011;43379;48.160;14.036;2023-11-21T00:14:12;9.00;;;6.90;;
57551;SDS011;43379;48.160;14.036;2023-11-21T00:16:40;10.90;;;7.10;;
57551;SDS011;43379;48.160;14.036;2023-11-21T00:19:06;8.50;;;7.10;;
57551;SDS011;43379;48.160;14.036;2023-11-21T00:21:32;9.07;;;7.33;;
57551;SDS011;43379;48.160;14.036;2023-11-21T00:23:57;9.00;;;6.20;;
57551;SDS011;43379;48.160;14.036;2023-11-21T00:26:23;8.50;;;7.70;;
57551;SDS011;43379;48.160;14.036;2023-11-21T00:28:49;9.40;;;6.87;;
57551;SDS011;43379;48.160;14.036;2023-11-21T00:31:15;7.20;;;6.60;;
57551;SDS011;43379;48.160;14.036;2023-11-21T00:33:41;9.00;;;6.57;;
57551;SDS011;43379;48.160;14.036;2023-11-21T00:36:08;8.03;;;7.30;;
57551;SDS011;43379;48.160;14.036;2023-11-21T00:38:34;7.10;;;6.40;;
57551;SDS011;43379;48.160;14.036;2023-11-21T00:41:00;6.87;;;6.20;;
57551;SDS011;43379;48.160;14.036;2023-11-21T00:43:26;8.07;;;7.27;;
57551;SDS011;43379;48.160;14.036;2023-11-21T00:45:52;7.87;;;6.53;;
57551;SDS011;43379;48.160;14.036;2023-11-21T00:48:17;7.50;;;6.67;;
57551;SDS011;43379;48.160;14.036;2023-11-21T00:50:43;10.17;;;6.10;;
57551;SDS011;43379;48.160;14.036;2023-11-21T00:53:09;7.90;;;5.80;;
57551;SDS011;43379;48.160;14.036;2023-11-21T00:55:36;6.70;;;5.43;;
57551;SDS011;43379;48.160;14.036;2023-11-21T00:58:02;7.60;;;6.80;;
57551;SDS011;43379;48.160;14.036;2023-11-21T01:00:29;9.37;;;6.23;;
57551;SDS011;43379;48.160;14.036;2023-11-21T01:02:55;9.97;;;7.30;;
57551;SDS011;43379;48.160;14.036;2023-11-21T01:05:21;8.97;;;7.23;;
57551;SDS011;43379;48.160;14.036;2023-11-21T01:07:46;10.03;;;8.80;;
57551;SDS011;43379;48.160;14.036;2023-11-21T01:10:12;13.00;;;9.93;;
57551;SDS011;43379;48.160;14.036;2023-11-21T01:12:38;15.77;;;11.70;;
57551;SDS011;43379;48.160;14.036;2023-11-21T01:15:04;11.73;;;9.23;;
57551;SDS011;43379;48.160;14.036;2023-11-21T01:17:33;12.70;;;9.10;;
57551;SDS011;43379;48.160;14.036;2023-11-21T01:20:00;8.53;;;7.57;;
57551;SDS011;43379;48.160;14.036;2023-11-21T01:22:28;9.30;;;8.33;;
57551;SDS011;43379;48.160;14.036;2023-11-21T01:24:54;12.47;;;6.90;;
57551;SDS011;43379;48.160;14.036;2023-11-21T01:27:19;10.93;;;6.90;;
57551;SDS011;43379;48.160;14.036;2023-11-21T01:29:45;7.63;;;6.90;;
57551;SDS011;43379;48.160;14.036;2023-11-21T01:32:11;10.47;;;8.40;;
57551;SDS011;43379;48.160;14.036;2023-11-21T01:34:37;11.70;;;7.87;;
57551;SDS011;43379;48.160;14.036;2023-11-21T01:37:03;13.70;;;9.00;;
57551;SDS011;43379;48.160;14.036;2023-11-21T01:39:30;10.80;;;8.57;;
57551;SDS011;43379;48.160;14.036;2023-11-21T01:41:56;10.50;;;7.27;;
57551;SDS011;43379;48.160;14.036;2023-11-21T01:44:26;9.13;;;7.80;;
57551;SDS011;43379;48.160;14.036;2023-11-21T01:46:51;9.37;;;7.20;;
57551;SDS011;43379;48.160;14.036;2023-11-21T01:49:18;11.37;;;8.90;;
57551;SDS011;43379;48.160;14.036;2023-11-21T01:51:46;12.33;;;7.93;;
57551;SDS011;43379;48.160;14.036;2023-11-21T01:54:14;9.23;;;8.00;;
57551;SDS011;43379;48.160;14.036;2023-11-21T01:56:45;8.33;;;7.53;;
57551;SDS011;43379;48.160;14.036;2023-11-21T01:59:12;10.67;;;7.93;;
57551;SDS011;43379;48.160;14.036;2023-11-21T02:01:44;9.50;;;6.83;;
57551;SDS011;43379;48.160;14.036;2023-11-21T02:04:11;8.33;;;6.17;;
57551;SDS011;43379;48.160;14.036;2023-11-21T02:06:37;10.70;;;7.93;;
57551;SDS011;43379;48.160;14.036;2023-11-21T02:09:04;10.60;;;7.07;;
57551;SDS011;43379;48.160;14.036;2023-11-21T02:11:30;7.63;;;6.63;;
57551;SDS011;43379;48.160;14.036;2023-11-21T02:13:56;9.53;;;6.87;;
57551;SDS011;43379;48.160;14.036;2023-11-21T02:16:24;10.80;;;6.40;;
57551;SDS011;43379;48.160;14.036;2023-11-21T02:18:50;8.63;;;7.73;;
57551;SDS011;43379;48.160;14.036;2023-11-21T02:21:17;8.40;;;6.37;;
57551;SDS011;43379;48.160;14.036;2023-11-21T02:23:44;7.40;;;6.57;;
57551;SDS011;43379;48.160;14.036;2023-11-21T02:26:11;8.50;;;6.67;;
57551;SDS011;43379;48.160;14.036;2023-11-21T02:28:38;9.87;;;6.70;;
57551;SDS011;43379;48.160;14.036;2023-11-21T02:31:05;9.30;;;7.50;;
57551;SDS011;43379;48.160;14.036;2023-11-21T02:33:30;8.27;;;6.47;;
57551;SDS011;43379;48.160;14.036;2023-11-21T02:36:02;8.47;;;7.47;;
57551;SDS011;43379;48.160;14.036;2023-11-21T02:38:28;11.70;;;7.73;;
57551;SDS011;43379;48.160;14.036;2023-11-21T02:40:53;6.83;;;6.20;;
57551;SDS011;43379;48.160;14.036;2023-11-21T02:43:19;8.40;;;6.70;;
57551;SDS011;43379;48.160;14.036;2023-11-21T02:45:45;8.63;;;6.07;;
57551;SDS011;43379;48.160;14.036;2023-11-21T02:48:10;8.30;;;6.60;;
57551;SDS011;43379;48.160;14.036;2023-11-21T02:50:36;8.70;;;7.33;;
57551;SDS011;43379;48.160;14.036;2023-11-21T02:53:02;11.27;;;7.03;;
57551;SDS011;43379;48.160;14.036;2023-11-21T02:55:30;7.83;;;6.70;;
57551;SDS011;43379;48.160;14.036;2023-11-21T02:57:59;9.10;;;6.90;;
57551;SDS011;43379;48.160;14.036;2023-11-21T03:00:25;7.10;;;6.50;;
57551;SDS011;43379;48.160;14.036;2023-11-21T03:02:53;9.37;;;7.30;;
57551;SDS011;43379;48.160;14.036;2023-11-21T03:05:20;8.87;;;6.80;;
57551;SDS011;43379;48.160;14.036;2023-11-21T03:07:46;11.73;;;7.67;;
57551;SDS011;43379;48.160;14.036;2023-11-21T03:10:12;7.70;;;6.87;;
57551;SDS011;43379;48.160;14.036;2023-11-21T03:12:38;9.27;;;7.73;;
57551;SDS011;43379;48.160;14.036;2023-11-21T03:15:05;8.97;;;7.67;;
57551;SDS011;43379;48.160;14.036;2023-11-21T03:17:31;9.00;;;6.60;;
57551;SDS011;43379;48.160;14.036;2023-11-21T03:19:58;10.83;;;6.90;;
57551;SDS011;43379;48.160;14.036;2023-11-21T03:22:25;8.07;;;7.20;;
57551;SDS011;43379;48.160;14.036;2023-11-21T03:24:51;7.13;;;6.30;;
57551;SDS011;43379;48.160;14.036;2023-11-21T03:27:17;9.77;;;6.20;;
57551;SDS011;43379;48.160;14.036;2023-11-21T03:29:43;9.10;;;6.50;;
57551;SDS011;43379;48.160;14.036;2023-11-21T03:32:10;8.20;;;6.63;;
57551;SDS011;43379;48.160;14.036;2023-11-21T03:34:48;10.07;;;6.67;;
57551;SDS011;43379;48.160;14.036;2023-11-21T03:37:21;9.77;;;6.80;;
57551;SDS011;43379;48.160;14.036;2023-11-21T03:39:47;10.07;;;7.10;;
57551;SDS011;43379;48.160;14.036;2023-11-21T03:42:13;7.37;;;6.67;;
57551;SDS011;43379;48.160;14.036;2023-11-21T03:44:38;9.07;;;8.17;;
57551;SDS011;43379;48.160;14.036;2023-11-21T03:47:04;7.30;;;6.60;;
57551;SDS011;43379;48.160;14.036;2023-11-21T03:49:30;7.83;;;7.20;;
57551;SDS011;43379;48.160;14.036;2023-11-21T03:51:56;8.33;;;7.53;;
57551;SDS011;43379;48.160;14.036;2023-11-21T03:54:22;12.73;;;8.57;;
57551;SDS011;43379;48.160;14.036;2023-11-21T03:56:47;8.30;;;7.50;;
57551;SDS011;43379;48.160;14.036;2023-11-21T03:59:13;9.03;;;7.30;;
57551;SDS011;43379;48.160;14.036;2023-11-21T04:01:38;11.33;;;7.30;;
57551;SDS011;43379;48.160;14.036;2023-11-21T04:04:04;9.93;;;6.43;;
57551;SDS011;43379;48.160;14.036;2023-11-21T04:06:30;11.87;;;7.80;;
57551;SDS011;43379;48.160;14.036;2023-11-21T04:08:57;10.77;;;7.20;;
57551;SDS011;43379;48.160;14.036;2023-11-21T04:11:23;8.43;;;7.23;;
57551;SDS011;43379;48.160;14.036;2023-11-21T04:13:49;7.80;;;7.10;;
57551;SDS011;43379;48.160;14.036;2023-11-21T04:16:15;9.33;;;6.53;;
57551;SDS011;43379;48.160;14.036;2023-11-21T04:18:40;8.17;;;7.37;;
57551;SDS011;43379;48.160;14.036;2023-11-21T04:21:06;8.57;;;6.93;;
57551;SDS011;43379;48.160;14.036;2023-11-21T04:23:33;11.13;;;7.20;;
57551;SDS011;43379;48.160;14.036;2023-11-21T04:25:59;9.67;;;7.47;;
57551;SDS011;43379;48.160;14.036;2023-11-21T04:28:27;9.13;;;7.23;;
57551;SDS011;43379;48.160;14.036;2023-11-21T04:30:53;9.70;;;7.40;;
57551;SDS011;43379;48.160;14.036;2023-11-21T04:33:19;8.17;;;7.37;;
57551;SDS011;43379;48.160;14.036;2023-11-21T04:35:45;8.63;;;7.10;;
57551;SDS011;43379;48.160;14.036;2023-11-21T04:38:11;10.00;;;7.87;;
57551;SDS011;43379;48.160;14.036;2023-11-21T04:40:36;8.27;;;7.47;;
57551;SDS011;43379;48.160;14.036;2023-11-21T04:43:02;10.20;;;6.20;;
57551;SDS011;43379;48.160;14.036;2023-11-21T04:45:29;10.07;;;6.93;;
57551;SDS011;43379;48.160;14.036;2023-11-21T04:47:55;9.20;;;7.17;;
57551;SDS011;43379;48.160;14.036;2023-11-21T04:50:21;8.10;;;6.80;;
57551;SDS011;43379;48.160;14.036;2023-11-21T04:52:46;11.93;;;7.20;;
57551;SDS011;43379;48.160;14.036;2023-11-21T04:55:12;7.83;;;6.87;;
57551;SDS011;43379;48.160;14.036;2023-11-21T04:57:38;10.57;;;6.97;;
57551;SDS011;43379;48.160;14.036;2023-11-21T05:00:06;7.67;;;6.87;;
57551;SDS011;43379;48.160;14.036;2023-11-21T05:02:33;8.20;;;7.50;;
57551;SDS011;43379;48.160;14.036;2023-11-21T05:05:00;6.90;;;6.13;;
57551;SDS011;43379;48.160;14.036;2023-11-21T05:07:26;9.67;;;6.80;;
57551;SDS011;43379;48.160;14.036;2023-11-21T05:09:57;6.60;;;5.83;;
57551;SDS011;43379;48.160;14.036;2023-11-21T05:12:23;8.57;;;7.00;;
57551;SDS011;43379;48.160;14.036;2023-11-21T05:14:49;8.43;;;6.47;;
57551;SDS011;43379;48.160;14.036;2023-11-21T05:17:16;7.17;;;6.47;;
57551;SDS011;43379;48.160;14.036;2023-11-21T05:19:42;6.87;;;6.27;;
57551;SDS011;43379;48.160;14.036;2023-11-21T05:22:10;7.43;;;6.70;;
57551;SDS011;43379;48.160;14.036;2023-11-21T05:24:37;8.00;;;6.10;;
57551;SDS011;43379;48.160;14.036;2023-11-21T05:27:04;12.03;;;7.57;;
57551;SDS011;43379;48.160;14.036;2023-11-21T05:29:29;12.87;;;7.30;;
57551;SDS011;43379;48.160;14.036;2023-11-21T05:31:55;6.97;;;5.70;;
57551;SDS011;43379;48.160;14.036;2023-11-21T05:34:21;8.40;;;7.57;;
57551;SDS011;43379;48.160;14.036;2023-11-21T05:36:49;7.40;;;6.23;;
57551;SDS011;43379;48.160;14.036;2023-11-21T05:39:15;7.17;;;6.47;;
57551;SDS011;43379;48.160;14.036;2023-11-21T05:41:42;6.60;;;6.00;;
57551;SDS011;43379;48.160;14.036;2023-11-21T05:44:08;7.53;;;6.40;;
57551;SDS011;43379;48.160;14.036;2023-11-21T05:46:34;10.97;;;7.50;;
57551;SDS011;43379;48.160;14.036;2023-11-21T05:49:00;9.20;;;7.50;;
57551;SDS011;43379;48.160;14.036;2023-11-21T05:51:25;8.50;;;7.70;;
57551;SDS011;43379;48.160;14.036;2023-11-21T05:53:51;9.33;;;7.53;;
57551;SDS011;43379;48.160;14.036;2023-11-21T05:56:17;8.30;;;6.80;;
57551;SDS011;43379;48.160;14.036;2023-11-21T05:58:43;11.63;;;6.20;;
57551;SDS011;43379;48.160;14.036;2023-11-21T06:01:09;10.33;;;7.17;;
57551;SDS011;43379;48.160;14.036;2023-11-21T06:03:37;8.93;;;6.10;;
57551;SDS011;43379;48.160;14.036;2023-11-21T06:06:03;11.83;;;6.93;;
57551;SDS011;43379;48.160;14.036;2023-11-21T06:08:29;8.57;;;7.20;;
57551;SDS011;43379;48.160;14.036;2023-11-21T06:10:55;7.27;;;6.53;;
57551;SDS011;43379;48.160;14.036;2023-11-21T06:13:21;6.80;;;6.20;;
57551;SDS011;43379;48.160;14.036;2023-11-21T06:15:49;8.70;;;6.80;;
57551;SDS011;43379;48.160;14.036;2023-11-21T06:18:16;9.23;;;6.97;;
57551;SDS011;43379;48.160;14.036;2023-11-21T06:20:44;9.17;;;7.17;;
57551;SDS011;43379;48.160;14.036;2023-11-21T06:23:12;10.53;;;7.33;;
57551;SDS011;43379;48.160;14.036;2023-11-21T06:25:39;11.50;;;9.50;;
57551;SDS011;43379;48.160;14.036;2023-11-21T06:28:05;11.10;;;9.40;;
57551;SDS011;43379;48.160;14.036;2023-11-21T06:30:31;8.67;;;7.63;;
57551;SDS011;43379;48.160;14.036;2023-11-21T06:32:57;9.33;;;8.40;;
57551;SDS011;43379;48.160;14.036;2023-11-21T06:35:22;7.57;;;6.60;;
57551;SDS011;43379;48.160;14.036;2023-11-21T06:37:48;10.10;;;7.30;;
57551;SDS011;43379;48.160;14.036;2023-11-21T06:40:14;13.63;;;9.23;;
57551;SDS011;43379;48.160;14.036;2023-11-21T06:42:40;12.40;;;8.87;;
57551;SDS011;43379;48.160;14.036;2023-11-21T06:45:06;8.23;;;7.43;;
57551;SDS011;43379;48.160;14.036;2023-11-21T06:47:32;10.27;;;7.50;;
57551;SDS011;43379;48.160;14.036;2023-11-21T06:49:58;9.47;;;7.00;;
57551;SDS011;43379;48.160;14.036;2023-11-21T06:52:25;10.03;;;7.57;;
57551;SDS011;43379;48.160;14.036;2023-11-21T06:54:51;18.73;;;12.90;;
57551;SDS011;43379;48.160;14.036;2023-11-21T06:57:16;17.20;;;13.73;;
57551;SDS011;43379;48.160;14.036;2023-11-21T06:59:42;13.90;;;10.20;;
57551;SDS011;43379;48.160;14.036;2023-11-21T07:02:08;13.00;;;8.47;;
57551;SDS011;43379;48.160;14.036;2023-11-21T07:04:34;12.40;;;7.27;;
57551;SDS011;43379;48.160;14.036;2023-11-21T07:07:01;9.50;;;5.47;;
57551;SDS011;43379;48.160;14.036;2023-11-21T07:09:31;7.37;;;4.83;;
57551;SDS011;43379;48.160;14.036;2023-11-21T07:11:57;5.97;;;4.30;;
57551;SDS011;43379;48.160;14.036;2023-11-21T07:14:23;11.67;;;5.90;;
57551;SDS011;43379;48.160;14.036;2023-11-21T07:16:48;8.67;;;4.77;;
57551;SDS011;43379;48.160;14.036;2023-11-21T07:19:14;12.10;;;6.50;;
57551;SDS011;43379;48.160;14.036;2023-11-21T07:21:40;9.27;;;5.27;;
57551;SDS011;43379;48.160;14.036;2023-11-21T07:24:06;8.03;;;6.90;;
57551;SDS011;43379;48.160;14.036;2023-11-21T07:26:33;11.07;;;7.47;;
57551;SDS011;43379;48.160;14.036;2023-11-21T07:28:59;11.17;;;9.80;;
57551;SDS011;43379;48.160;14.036;2023-11-21T07:31:26;10.43;;;8.07;;
57551;SDS011;43379;48.160;14.036;2023-11-21T07:33:52;11.97;;;8.77;;
57551;SDS011;43379;48.160;14.036;2023-11-21T07:36:17;7.53;;;5.80;;
57551;SDS011;43379;48.160;14.036;2023-11-21T07:38:45;7.93;;;4.80;;
57551;SDS011;43379;48.160;14.036;2023-11-21T07:41:12;6.97;;;3.83;;
57551;SDS011;43379;48.160;14.036;2023-11-21T07:43:41;7.30;;;3.93;;
57551;SDS011;43379;48.160;14.036;2023-11-21T07:46:10;5.43;;;3.27;;
57551;SDS011;43379;48.160;14.036;2023-11-21T07:48:37;4.13;;;2.50;;
57551;SDS011;43379;48.160;14.036;2023-11-21T07:51:03;4.93;;;2.80;;
57551;SDS011;43379;48.160;14.036;2023-11-21T07:53:29;5.80;;;3.23;;
57551;SDS011;43379;48.160;14.036;2023-11-21T07:56:05;6.50;;;3.20;;
57551;SDS011;43379;48.160;14.036;2023-11-21T07:58:33;8.53;;;3.30;;
57551;SDS011;43379;48.160;14.036;2023-11-21T08:00:59;8.43;;;3.63;;
57551;SDS011;43379;48.160;14.036;2023-11-21T08:03:25;13.63;;;4.23;;
57551;SDS011;43379;48.160;14.036;2023-11-21T08:05:51;10.83;;;4.30;;
57551;SDS011;43379;48.160;14.036;2023-11-21T08:08:17;5.40;;;3.87;;
57551;SDS011;43379;48.160;14.036;2023-11-21T08:10:44;5.73;;;3.97;;
57551;SDS011;43379;48.160;14.036;2023-11-21T08:13:21;6.37;;;3.90;;
57551;SDS011;43379;48.160;14.036;2023-11-21T08:15:50;5.33;;;4.00;;
57551;SDS011;43379;48.160;14.036;2023-11-21T08:18:18;6.47;;;3.43;;
57551;SDS011;43379;48.160;14.036;2023-11-21T08:20:44;8.10;;;4.37;;
57551;SDS011;43379;48.160;14.036;2023-11-21T08:23:12;4.60;;;3.60;;
57551;SDS011;43379;48.160;14.036;2023-11-21T08:25:44;6.53;;;4.10;;
57551;SDS011;43379;48.160;14.036;2023-11-21T08:28:10;5.73;;;3.53;;
57551;SDS011;43379;48.160;14.036;2023-11-21T08:30:36;6.33;;;4.27;;
57551;SDS011;43379;48.160;14.036;2023-11-21T08:33:02;7.33;;;3.40;;
57551;SDS011;43379;48.160;14.036;2023-11-21T08:35:28;4.57;;;3.60;;
57551;SDS011;43379;48.160;14.036;2023-11-21T08:37:55;5.40;;;3.60;;
57551;SDS011;43379;48.160;14.036;2023-11-21T08:40:21;5.90;;;3.37;;
57551;SDS011;43379;48.160;14.036;2023-11-21T08:42:47;4.37;;;3.60;;
57551;SDS011;43379;48.160;14.036;2023-11-21T08:45:13;6.73;;;3.90;;
57551;SDS011;43379;48.160;14.036;2023-11-21T08:47:39;4.40;;;3.67;;
57551;SDS011;43379;48.160;14.036;2023-11-21T08:50:06;5.50;;;3.30;;
57551;SDS011;43379;48.160;14.036;2023-11-21T08:52:33;5.90;;;4.50;;
57551;SDS011;43379;48.160;14.036;2023-11-21T08:54:59;4.90;;;3.47;;
57551;SDS011;43379;48.160;14.036;2023-11-21T08:57:32;7.50;;;4.30;;
57551;SDS011;43379;48.160;14.036;2023-11-21T09:00:02;8.10;;;4.60;;
57551;SDS011;43379;48.160;14.036;2023-11-21T09:02:32;5.80;;;3.67;;
57551;SDS011;43379;48.160;14.036;2023-11-21T09:04:58;4.27;;;3.70;;
57551;SDS011;43379;48.160;14.036;2023-11-21T09:07:28;6.90;;;3.90;;
57551;SDS011;43379;48.160;14.036;2023-11-21T09:09:54;5.10;;;3.53;;
57551;SDS011;43379;48.160;14.036;2023-11-21T09:12:20;7.73;;;4.53;;
57551;SDS011;43379;48.160;14.036;2023-11-21T09:14:46;7.80;;;4.33;;
57551;SDS011;43379;48.160;14.036;2023-11-21T09:17:12;6.03;;;4.00;;
57551;SDS011;43379;48.160;14.036;2023-11-21T09:19:39;6.90;;;3.70;;
57551;SDS011;43379;48.160;14.036;2023-11-21T09:22:05;10.53;;;4.60;;
57551;SDS011;43379;48.160;14.036;2023-11-21T09:24:32;6.17;;;3.50;;
57551;SDS011;43379;48.160;14.036;2023-11-21T09:26:58;4.57;;;3.97;;
57551;SDS011;43379;48.160;14.036;2023-11-21T09:29:25;8.83;;;3.47;;
57551;SDS011;43379;48.160;14.036;2023-11-21T09:31:51;2.97;;;2.60;;
57551;SDS011;43379;48.160;14.036;2023-11-21T09:34:17;5.17;;;3.20;;
57551;SDS011;43379;48.160;14.036;2023-11-21T09:36:46;3.57;;;2.77;;
57551;SDS011;43379;48.160;14.036;2023-11-21T09:39:13;4.37;;;2.40;;
57551;SDS011;43379;48.160;14.036;2023-11-21T09:41:50;4.40;;;2.97;;
57551;SDS011;43379;48.160;14.036;2023-11-21T09:44:48;5.17;;;2.93;;
57551;SDS011;43379;48.160;14.036;2023-11-21T09:47:16;2.80;;;2.37;;
57551;SDS011;43379;48.160;14.036;2023-11-21T09:49:47;4.33;;;2.53;;
57551;SDS011;43379;48.160;14.036;2023-11-21T09:52:27;8.13;;;3.10;;
57551;SDS011;43379;48.160;14.036;2023-11-21T09:54:53;5.13;;;2.53;;
57551;SDS011;43379;48.160;14.036;2023-11-21T09:57:22;4.43;;;2.50;;
57551;SDS011;43379;48.160;14.036;2023-11-21T09:59:50;5.10;;;2.40;;
57551;SDS011;43379;48.160;14.036;2023-11-21T10:02:22;3.17;;;2.63;;
57551;SDS011;43379;48.160;14.036;2023-11-21T10:04:51;3.67;;;3.00;;
57551;SDS011;43379;48.160;14.036;2023-11-21T10:07:17;2.50;;;2.27;;
57551;SDS011;43379;48.160;14.036;2023-11-21T10:09:45;2.80;;;2.50;;
57551;SDS011;43379;48.160;14.036;2023-11-21T10:12:13;5.40;;;3.20;;
57551;SDS011;43379;48.160;14.036;2023-11-21T10:14:41;2.70;;;2.50;;
57551;SDS011;43379;48.160;14.036;2023-11-21T10:17:09;5.23;;;3.40;;
57551;SDS011;43379;48.160;14.036;2023-11-21T10:19:37;4.17;;;2.60;;
57551;SDS011;43379;48.160;14.036;2023-11-21T10:22:04;4.20;;;3.10;;
57551;SDS011;43379;48.160;14.036;2023-11-21T10:24:32;8.60;;;2.77;;
57551;SDS011;43379;48.160;14.036;2023-11-21T10:26:58;4.20;;;2.47;;
57551;SDS011;43379;48.160;14.036;2023-11-21T10:29:28;3.90;;;2.57;;
57551;SDS011;43379;48.160;14.036;2023-11-21T10:31:55;4.83;;;2.80;;
57551;SDS011;43379;48.160;14.036;2023-11-21T10:34:23;5.57;;;3.37;;
57551;SDS011;43379;48.160;14.036;2023-11-21T10:36:49;5.40;;;2.93;;
57551;SDS011;43379;48.160;14.036;2023-11-21T10:39:18;5.93;;;3.07;;
57551;SDS011;43379;48.160;14.036;2023-11-21T10:41:48;6.20;;;3.40;;
57551;SDS011;43379;48.160;14.036;2023-11-21T10:44:16;4.50;;;3.07;;
57551;SDS011;43379;48.160;14.036;2023-11-21T10:46:52;4.20;;;3.10;;
57551;SDS011;43379;48.160;14.036;2023-11-21T10:49:24;3.80;;;2.70;;
57551;SDS011;43379;48.160;14.036;2023-11-21T10:51:52;7.47;;;3.27;;
57551;SDS011;43379;48.160;14.036;2023-11-21T10:54:22;3.40;;;2.60;;
57551;SDS011;43379;48.160;14.036;2023-11-21T10:56:49;4.03;;;2.77;;
57551;SDS011;43379;48.160;14.036;2023-11-21T10:59:17;4.93;;;2.83;;
57551;SDS011;43379;48.160;14.036;2023-11-21T11:01:44;3.00;;;2.53;;
57551;SDS011;43379;48.160;14.036;2023-11-21T11:04:13;2.20;;;2.00;;
57551;SDS011;43379;48.160;14.036;2023-11-21T11:06:45;2.67;;;2.33;;
57551;SDS011;43379;48.160;14.036;2023-11-21T11:09:16;2.53;;;2.13;;
57551;SDS011;43379;48.160;14.036;2023-11-21T11:11:42;2.70;;;2.50;;
57551;SDS011;43379;48.160;14.036;2023-11-21T11:14:12;3.77;;;2.37;;
57551;SDS011;43379;48.160;14.036;2023-11-21T11:16:39;5.83;;;2.73;;
57551;SDS011;43379;48.160;14.036;2023-11-21T11:19:11;4.60;;;2.83;;
57551;SDS011;43379;48.160;14.036;2023-11-21T11:21:46;2.60;;;2.40;;
57551;SDS011;43379;48.160;14.036;2023-11-21T11:38:32;2.97;;;2.67;;
57551;SDS011;43379;48.160;14.036;2023-11-21T11:41:01;2.70;;;2.10;;
57551;SDS011;43379;48.160;14.036;2023-11-21T11:43:29;4.73;;;2.80;;
57551;SDS011;43379;48.160;14.036;2023-11-21T11:45:57;2.70;;;2.20;;
57551;SDS011;43379;48.160;14.036;2023-11-21T11:48:24;2.30;;;2.10;;
57551;SDS011;43379;48.160;14.036;2023-11-21T11:51:03;3.83;;;2.17;;
57551;SDS011;43379;48.160;14.036;2023-11-21T11:53:43;3.23;;;2.20;;
57551;SDS011;43379;48.160;14.036;2023-11-21T11:56:21;2.20;;;1.80;;
57551;SDS011;43379;48.160;14.036;2023-11-21T11:58:58;4.03;;;2.50;;
57551;SDS011;43379;48.160;14.036;2023-11-21T12:01:27;3.00;;;2.40;;
57551;SDS011;43379;48.160;14.036;2023-11-21T12:06:56;2.27;;;2.00;;
57551;SDS011;43379;48.160;14.036;2023-11-21T12:09:25;2.40;;;2.20;;
57551;SDS011;43379;48.160;14.036;2023-11-21T12:11:51;4.73;;;2.03;;
57551;SDS011;43379;48.160;14.036;2023-11-21T12:14:18;2.40;;;2.20;;
57551;SDS011;43379;48.160;14.036;2023-11-21T12:16:44;2.57;;;2.33;;
57551;SDS011;43379;48.160;14.036;2023-11-21T12:19:10;4.30;;;2.40;;
57551;SDS011;43379;48.160;14.036;2023-11-21T12:21:38;3.10;;;2.80;;
57551;SDS011;43379;48.160;14.036;2023-11-21T12:24:09;5.70;;;3.37;;
57551;SDS011;43379;48.160;14.036;2023-11-21T12:26:38;3.43;;;2.60;;
57551;SDS011;43379;48.160;14.036;2023-11-21T12:29:04;4.83;;;2.60;;
57551;SDS011;43379;48.160;14.036;2023-11-21T12:31:32;3.23;;;2.87;;
57551;SDS011;43379;48.160;14.036;2023-11-21T12:33:59;5.93;;;4.80;;
57551;SDS011;43379;48.160;14.036;2023-11-21T12:36:25;10.40;;;7.83;;
57551;SDS011;43379;48.160;14.036;2023-11-21T12:38:51;10.80;;;8.93;;
57551;SDS011;43379;48.160;14.036;2023-11-21T12:41:17;8.17;;;6.70;;
57551;SDS011;43379;48.160;14.036;2023-11-21T12:43:42;4.13;;;3.70;;
57551;SDS011;43379;48.160;14.036;2023-11-21T12:46:09;3.67;;;3.00;;
57551;SDS011;43379;48.160;14.036;2023-11-21T12:48:42;2.77;;;2.47;;
57551;SDS011;43379;48.160;14.036;2023-11-21T12:51:09;4.17;;;2.53;;
57551;SDS011;43379;48.160;14.036;2023-11-21T12:53:36;2.67;;;2.47;;
57551;SDS011;43379;48.160;14.036;2023-11-21T12:56:12;4.03;;;2.70;;
57551;SDS011;43379;48.160;14.036;2023-11-21T12:58:39;2.40;;;2.20;;
57551;SDS011;43379;48.160;14.036;2023-11-21T13:01:06;2.40;;;2.20;;
57551;SDS011;43379;48.160;14.036;2023-11-21T13:03:37;2.53;;;2.33;;
57551;SDS011;43379;48.160;14.036;2023-11-21T13:06:04;2.10;;;1.90;;
57551;SDS011;43379;48.160;14.036;2023-11-21T13:08:30;4.30;;;2.23;;
57551;SDS011;43379;48.160;14.036;2023-11-21T13:10:58;2.67;;;2.47;;
57551;SDS011;43379;48.160;14.036;2023-11-21T13:13:24;2.10;;;1.90;;
57551;SDS011;43379;48.160;14.036;2023-11-21T13:15:53;2.50;;;2.13;;
57551;SDS011;43379;48.160;14.036;2023-11-21T13:18:25;3.20;;;2.20;;
57551;SDS011;43379;48.160;14.036;2023-11-21T13:20:52;3.07;;;2.30;;
57551;SDS011;43379;48.160;14.036;2023-11-21T13:23:20;2.60;;;2.40;;
57551;SDS011;43379;48.160;14.036;2023-11-21T13:25:45;2.87;;;2.30;;
57551;SDS011;43379;48.160;14.036;2023-11-21T13:28:13;2.77;;;2.20;;
57551;SDS011;43379;48.160;14.036;2023-11-21T13:30:40;2.80;;;2.20;;
57551;SDS011;43379;48.160;14.036;2023-11-21T13:33:07;2.83;;;2.47;;
57551;SDS011;43379;48.160;14.036;2023-11-21T13:35:34;2.60;;;2.40;;
57551;SDS011;43379;48.160;14.036;2023-11-21T13:38:07;2.30;;;2.10;;
57551;SDS011;43379;48.160;14.036;2023-11-21T13:40:34;2.30;;;2.10;;
57551;SDS011;43379;48.160;14.036;2023-11-21T13:43:11;4.30;;;2.70;;
57551;SDS011;43379;48.160;14.036;2023-11-21T13:45:38;3.83;;;2.37;;
57551;SDS011;43379;48.160;14.036;2023-11-21T13:48:04;3.07;;;2.37;;
57551;SDS011;43379;48.160;14.036;2023-11-21T13:50:35;2.80;;;2.50;;
57551;SDS011;43379;48.160;14.036;2023-11-21T13:53:04;2.57;;;2.10;;
57551;SDS011;43379;48.160;14.036;2023-11-21T13:55:47;3.23;;;2.27;;
57551;SDS011;43379;48.160;14.036;2023-11-21T13:58:19;2.67;;;2.47;;
57551;SDS011;43379;48.160;14.036;2023-11-21T14:00:49;3.00;;;2.80;;
57551;SDS011;43379;48.160;14.036;2023-11-21T14:03:22;2.93;;;2.63;;
57551;SDS011;43379;48.160;14.036;2023-11-21T14:05:50;4.00;;;3.30;;
57551;SDS011;43379;48.160;14.036;2023-11-21T14:08:20;4.10;;;3.30;;
57551;SDS011;43379;48.160;14.036;2023-11-21T14:10:47;3.20;;;2.53;;
57551;SDS011;43379;48.160;14.036;2023-11-21T14:13:20;3.80;;;2.80;;
57551;SDS011;43379;48.160;14.036;2023-11-21T14:15:48;3.40;;;3.10;;
57551;SDS011;43379;48.160;14.036;2023-11-21T14:18:16;3.50;;;3.17;;
57551;SDS011;43379;48.160;14.036;2023-11-21T14:20:43;2.90;;;2.43;;
57551;SDS011;43379;48.160;14.036;2023-11-21T14:23:09;3.13;;;2.93;;
57551;SDS011;43379;48.160;14.036;2023-11-21T14:25:36;2.97;;;2.67;;
57551;SDS011;43379;48.160;14.036;2023-11-21T14:28:05;3.93;;;3.10;;
57551;SDS011;43379;48.160;14.036;2023-11-21T14:30:34;3.03;;;2.50;;
57551;SDS011;43379;48.160;14.036;2023-11-21T14:33:01;3.20;;;2.53;;
57551;SDS011;43379;48.160;14.036;2023-11-21T14:35:27;3.30;;;2.93;;
57551;SDS011;43379;48.160;14.036;2023-11-21T14:37:57;2.63;;;2.43;;
57551;SDS011;43379;48.160;14.036;2023-11-21T14:40:27;2.87;;;2.67;;
57551;SDS011;43379;48.160;14.036;2023-11-21T14:42:58;3.47;;;2.80;;
57551;SDS011;43379;48.160;14.036;2023-11-21T14:45:32;6.20;;;3.93;;
57551;SDS011;43379;48.160;14.036;2023-11-21T14:47:59;2.67;;;2.47;;
57551;SDS011;43379;48.160;14.036;2023-11-21T14:50:45;3.70;;;3.40;;